createdAt,value
2022-10-06T00:02:23.399Z,99.08
2022-10-06T00:05:26.176Z,99.64
2022-10-06T00:08:31.971Z,99.20
2022-10-06T00:11:35.499Z,99.65
2022-10-06T00:14:38.718Z,99.32
2022-10-06T00:17:41.498Z,99.35
2022-10-06T00:20:44.394Z,99.39
2022-10-06T00:23:48.827Z,99.49
2022-10-06T00:26:51.514Z,99.78
2022-10-06T00:29:54.224Z,99.65
2022-10-06T00:32:58.805Z,99.56
2022-10-06T00:36:01.783Z,99.67
2022-10-06T00:39:06.078Z,99.64
2022-10-06T00:42:23.032Z,99.27
2022-10-06T00:45:32.158Z,100.00
2022-10-06T00:48:35.354Z,99.88
2022-10-06T00:51:42.015Z,100.00
2022-10-06T00:54:46.143Z,100.00
2022-10-06T00:57:49.924Z,100.00
2022-10-06T01:00:55.621Z,100.00
2022-10-06T01:04:05.105Z,100.00
2022-10-06T01:07:08.164Z,100.00
2022-10-06T01:10:12.507Z,100.00
2022-10-06T01:13:16.164Z,100.00
2022-10-06T01:16:23.440Z,100.00
2022-10-06T01:19:39.705Z,100.00
2022-10-06T01:22:46.277Z,100.00
2022-10-06T01:25:50.133Z,100.00
2022-10-06T01:28:53.479Z,100.00
2022-10-06T01:31:56.527Z,100.00
2022-10-06T01:34:59.541Z,100.00
2022-10-06T01:38:03.656Z,100.00
2022-10-06T01:41:06.660Z,100.00
2022-10-06T01:44:09.605Z,100.00
2022-10-06T01:47:12.321Z,100.00
2022-10-06T01:50:15.591Z,100.00
2022-10-06T01:53:19.710Z,100.00
2022-10-06T01:56:22.990Z,100.00
2022-10-06T01:59:25.885Z,100.00
2022-10-06T02:02:31.603Z,100.00
2022-10-06T02:05:34.793Z,100.00
2022-10-06T02:08:39.468Z,100.00
2022-10-06T02:11:42.153Z,100.00
2022-10-06T02:14:45.187Z,100.00
2022-10-06T02:17:48.055Z,100.00
2022-10-06T02:20:51.141Z,100.00
2022-10-06T02:23:55.246Z,99.95
2022-10-06T02:26:58.132Z,99.80
2022-10-06T02:30:01.627Z,99.67
2022-10-06T02:33:04.704Z,99.40
2022-10-06T02:36:09.216Z,99.02
2022-10-06T02:39:13.331Z,99.05
2022-10-06T02:42:17.173Z,99.00
2022-10-06T02:45:20.222Z,99.08
2022-10-06T02:48:24.749Z,99.27
2022-10-06T02:51:27.508Z,99.24
2022-10-06T02:54:31.663Z,99.38
2022-10-06T02:57:34.453Z,99.23
2022-10-06T03:00:37.414Z,99.09
2022-10-06T03:03:40.448Z,98.88
2022-10-06T03:06:43.573Z,98.80
2022-10-06T03:09:47.823Z,98.69
2022-10-06T03:12:51.162Z,98.54
2022-10-06T03:15:54.370Z,98.73
2022-10-06T03:18:57.457Z,98.93
2022-10-06T03:22:00.464Z,98.84
2022-10-06T03:25:05.224Z,99.05
2022-10-06T03:28:08.017Z,99.43
2022-10-06T03:31:11.440Z,99.51
2022-10-06T03:34:15.505Z,99.34
2022-10-06T03:37:19.326Z,99.52
2022-10-06T03:40:23.743Z,99.43
2022-10-06T03:43:26.743Z,99.32
2022-10-06T03:46:31.764Z,99.40
2022-10-06T03:49:34.779Z,99.00
2022-10-06T03:52:38.084Z,99.01
2022-10-06T03:55:42.122Z,98.92
2022-10-06T03:58:46.917Z,96.10
2022-10-06T04:01:50.110Z,95.51
2022-10-06T04:04:52.816Z,94.87
2022-10-06T04:07:55.503Z,93.59
2022-10-06T04:11:07.350Z,94.59
2022-10-06T04:14:13.011Z,93.27
2022-10-06T04:17:16.018Z,93.37
2022-10-06T04:20:18.729Z,93.92
2022-10-06T04:23:21.759Z,94.09
2022-10-06T04:26:28.648Z,94.61
2022-10-06T04:29:31.395Z,95.03
2022-10-06T04:32:34.495Z,94.08
2022-10-06T04:35:37.208Z,93.56
2022-10-06T04:38:40.084Z,92.81
2022-10-06T04:41:47.616Z,93.73
2022-10-06T04:44:50.381Z,93.89
2022-10-06T04:47:53.091Z,93.03
2022-10-06T04:50:57.571Z,90.51
2022-10-06T04:54:01.150Z,92.33
2022-10-06T04:57:06.167Z,92.06
2022-10-06T05:00:25.349Z,92.17
2022-10-06T05:03:30.076Z,92.52
2022-10-06T05:06:34.607Z,92.76
2022-10-06T05:09:37.762Z,93.14
2022-10-06T05:12:42.141Z,93.32
2022-10-06T05:15:45.135Z,93.23
2022-10-06T05:18:48.167Z,93.54
2022-10-06T05:21:51.187Z,93.66
2022-10-06T05:24:53.929Z,93.69
2022-10-06T05:27:58.038Z,93.90
2022-10-06T05:31:05.090Z,94.16
2022-10-06T05:34:08.318Z,94.29
2022-10-06T05:37:11.023Z,94.15
2022-10-06T05:40:14.288Z,94.14
2022-10-06T05:43:19.675Z,94.26
2022-10-06T05:46:25.210Z,94.28
2022-10-06T05:49:28.052Z,93.92
2022-10-06T05:52:31.209Z,94.22
2022-10-06T05:55:33.911Z,93.94
2022-10-06T05:58:39.858Z,94.30
2022-10-06T06:01:44.659Z,94.49
2022-10-06T06:04:47.549Z,94.69
2022-10-06T06:07:50.269Z,94.54
2022-10-06T06:10:53.034Z,94.62
2022-10-06T06:13:59.549Z,94.82
2022-10-06T06:17:01.821Z,94.59
2022-10-06T06:20:05.311Z,94.50
2022-10-06T06:23:08.374Z,94.76
2022-10-06T06:26:13.133Z,94.47
2022-10-06T06:29:17.495Z,94.41
2022-10-06T06:32:20.618Z,94.54
2022-10-06T06:35:23.291Z,94.56
2022-10-06T06:38:26.427Z,94.25
2022-10-06T06:41:31.042Z,93.69
2022-10-06T06:44:35.559Z,93.13
2022-10-06T06:47:39.154Z,92.62
2022-10-06T06:50:42.058Z,91.96
2022-10-06T06:53:44.862Z,91.61
2022-10-06T06:56:48.859Z,90.62
2022-10-06T06:59:53.359Z,90.08
2022-10-06T07:03:00.931Z,89.56
2022-10-06T07:06:09.745Z,88.97
2022-10-06T07:09:12.521Z,88.57
2022-10-06T07:12:15.190Z,86.03
2022-10-06T07:15:36.665Z,82.59
2022-10-06T07:18:56.948Z,83.24
2022-10-06T07:22:20.146Z,83.08
2022-10-06T07:25:26.471Z,80.39
2022-10-06T07:28:30.887Z,80.10
2022-10-06T07:31:36.695Z,80.12
2022-10-06T07:37:49.664Z,79.09
2022-10-06T07:41:17.914Z,78.79
2022-10-06T07:44:18.316Z,77.43
2022-10-06T07:47:22.375Z,68.82
2022-10-06T07:50:26.048Z,70.21
2022-10-06T07:53:29.396Z,66.90
2022-10-06T07:56:32.651Z,67.55
2022-10-06T07:59:35.766Z,66.63
2022-10-06T08:02:40.188Z,66.87
2022-10-06T08:05:43.019Z,65.18
2022-10-06T08:08:52.399Z,66.72
2022-10-06T08:11:55.687Z,66.11
2022-10-06T08:15:04.393Z,66.74
2022-10-06T08:18:27.206Z,65.41
2022-10-06T08:21:35.533Z,66.61
2022-10-06T08:25:04.364Z,67.04
2022-10-06T08:28:01.128Z,67.14
2022-10-06T08:31:11.580Z,66.25
2022-10-06T08:34:15.752Z,65.12
2022-10-06T08:37:23.829Z,63.66
2022-10-06T08:40:27.580Z,64.62
2022-10-06T08:43:33.208Z,66.27
2022-10-06T08:46:41.151Z,66.32
2022-10-06T08:49:48.067Z,64.47
2022-10-06T08:53:02.135Z,66.70
2022-10-06T08:56:18.384Z,67.83
2022-10-06T08:59:21.731Z,68.04
2022-10-06T09:02:29.943Z,68.38
2022-10-06T09:05:34.953Z,68.59
2022-10-06T09:08:50.847Z,67.49
2022-10-06T09:12:07.148Z,66.65
2022-10-06T09:15:20.791Z,65.46
2022-10-06T09:18:49.409Z,65.11
2022-10-06T09:21:55.841Z,63.44
2022-10-06T09:25:02.444Z,62.79
2022-10-06T09:28:09.490Z,62.57
2022-10-06T09:31:22.160Z,62.13
2022-10-06T09:34:36.590Z,58.82
2022-10-06T09:37:55.328Z,60.06
2022-10-06T09:40:58.299Z,59.67
2022-10-06T09:44:04.323Z,58.81
2022-10-06T09:47:25.136Z,57.57
2022-10-06T09:50:29.627Z,56.85
2022-10-06T09:53:37.511Z,56.12
2022-10-06T09:56:42.328Z,55.28
2022-10-06T09:59:46.747Z,55.25
2022-10-06T10:02:57.103Z,53.28
2022-10-06T10:06:02.339Z,54.07
2022-10-06T10:09:29.319Z,52.66
2022-10-06T10:12:35.100Z,52.50
2022-10-06T10:15:54.505Z,50.99
2022-10-06T10:18:58.621Z,52.09
2022-10-06T10:22:01.606Z,52.64
2022-10-06T10:25:19.323Z,52.90
2022-10-06T10:28:42.720Z,53.90
2022-10-06T10:31:59.081Z,54.16
2022-10-06T10:35:11.959Z,53.60
2022-10-06T10:38:19.711Z,53.82
2022-10-06T10:41:27.270Z,52.68
2022-10-06T10:44:35.351Z,52.76
2022-10-06T10:47:41.632Z,51.70
2022-10-06T10:50:51.396Z,52.04
2022-10-06T10:53:57.786Z,49.97
2022-10-06T10:57:02.010Z,49.44
2022-10-06T11:00:08.038Z,51.10
2022-10-06T11:03:11.531Z,51.15
2022-10-06T11:06:54.360Z,50.61
2022-10-06T11:10:04.472Z,50.65
2022-10-06T11:13:20.642Z,50.22
2022-10-06T11:16:38.133Z,48.85
2022-10-06T11:19:52.451Z,48.89
2022-10-06T11:23:01.024Z,47.91
2022-10-06T11:26:19.129Z,47.83
2022-10-06T11:29:35.309Z,46.90
2022-10-06T11:32:49.991Z,46.50
2022-10-06T11:35:53.215Z,45.38
2022-10-06T11:39:02.437Z,45.73
2022-10-06T11:42:15.259Z,45.36
2022-10-06T11:45:24.931Z,44.46
2022-10-06T11:48:29.946Z,42.97
2022-10-06T11:51:32.685Z,41.29
2022-10-06T11:54:45.069Z,41.62
2022-10-06T11:58:41.532Z,42.83
2022-10-06T12:01:56.821Z,43.89
2022-10-06T12:08:56.139Z,43.35
2022-10-06T12:12:03.024Z,42.05
2022-10-06T12:18:51.240Z,40.57
2022-10-06T12:22:01.694Z,40.32
2022-10-06T12:25:11.198Z,39.96
2022-10-06T12:28:25.231Z,40.43
2022-10-06T12:31:46.966Z,41.44
2022-10-06T12:35:03.061Z,42.44
2022-10-06T12:38:06.819Z,41.38
2022-10-06T12:41:12.057Z,42.09
2022-10-06T12:44:24.252Z,42.92
2022-10-06T12:47:36.066Z,42.39
2022-10-06T12:50:42.999Z,42.41
2022-10-06T12:53:52.569Z,42.27
2022-10-06T12:57:00.080Z,43.00
2022-10-06T13:00:03.268Z,42.94
2022-10-06T13:03:08.941Z,43.08
2022-10-06T13:06:13.051Z,42.64
2022-10-06T13:09:15.720Z,44.07
2022-10-06T13:12:24.776Z,43.22
2022-10-06T13:18:38.235Z,42.46
2022-10-06T13:21:42.441Z,43.54
2022-10-06T13:24:45.208Z,43.68
2022-10-06T13:27:51.607Z,43.44
2022-10-06T13:30:56.055Z,43.30
2022-10-06T13:34:02.369Z,42.28
2022-10-06T13:37:06.523Z,41.90
2022-10-06T13:40:27.514Z,41.83
2022-10-06T13:43:43.343Z,40.40
2022-10-06T13:46:50.398Z,41.18
2022-10-06T13:49:57.031Z,41.79
2022-10-06T13:53:01.972Z,41.02
2022-10-06T13:56:04.721Z,40.72
2022-10-06T13:59:30.646Z,41.94
2022-10-06T14:02:34.241Z,41.49
2022-10-06T14:05:38.928Z,41.50
2022-10-06T14:08:46.868Z,39.48
2022-10-06T14:11:49.781Z,38.75
2022-10-06T14:14:54.260Z,39.24
2022-10-06T14:17:59.155Z,40.30
2022-10-06T14:21:18.247Z,39.19
2022-10-06T14:24:26.130Z,39.25
2022-10-06T14:27:29.190Z,39.70
2022-10-06T14:30:31.893Z,38.97
2022-10-06T14:33:35.043Z,39.06
2022-10-06T14:36:38.393Z,38.14
2022-10-06T14:39:42.736Z,39.18
2022-10-06T14:42:45.963Z,38.96
2022-10-06T14:45:48.748Z,40.21
2022-10-06T14:48:52.522Z,41.86
2022-10-06T14:51:56.139Z,41.13
2022-10-06T14:55:00.703Z,41.13
2022-10-06T14:58:03.889Z,41.21
2022-10-06T15:01:07.413Z,42.14
2022-10-06T15:04:12.701Z,41.22
2022-10-06T15:07:44.456Z,39.78
2022-10-06T15:10:54.063Z,39.51
2022-10-06T15:13:58.732Z,41.02
2022-10-06T15:17:01.624Z,41.04
2022-10-06T15:20:04.692Z,41.61
2022-10-06T15:23:07.467Z,43.07
2022-10-06T15:26:30.241Z,43.60
2022-10-06T15:29:33.938Z,45.24
2022-10-06T15:32:37.250Z,43.71
2022-10-06T15:35:40.141Z,42.80
2022-10-06T15:38:42.867Z,43.85
2022-10-06T15:41:48.279Z,45.49
2022-10-06T15:44:50.991Z,45.70
2022-10-06T15:47:53.723Z,45.97
2022-10-06T15:50:58.103Z,46.96
2022-10-06T15:54:00.851Z,47.67
2022-10-06T15:57:06.547Z,48.12
2022-10-06T16:00:10.776Z,48.83
2022-10-06T16:03:26.220Z,49.85
2022-10-06T16:06:41.677Z,50.68
2022-10-06T16:09:45.898Z,51.46
2022-10-06T16:12:49.920Z,52.65
2022-10-06T16:15:56.288Z,53.02
2022-10-06T16:18:59.417Z,53.97
2022-10-06T16:22:02.213Z,55.00
2022-10-06T16:25:05.643Z,56.36
2022-10-06T16:28:09.706Z,57.07
2022-10-06T16:31:12.734Z,57.44
2022-10-06T16:34:15.970Z,58.98
2022-10-06T16:37:18.732Z,60.71
2022-10-06T16:40:23.050Z,61.22
2022-10-06T16:43:31.409Z,61.46
2022-10-06T16:46:34.672Z,63.15
2022-10-06T16:49:37.463Z,63.46
2022-10-06T16:52:40.514Z,64.43
2022-10-06T16:55:43.618Z,63.91
2022-10-06T16:58:50.163Z,64.41
2022-10-06T17:01:52.945Z,64.62
2022-10-06T17:04:55.599Z,66.19
2022-10-06T17:07:59.235Z,66.82
2022-10-06T17:11:04.797Z,67.13
2022-10-06T17:14:09.208Z,67.41
2022-10-06T17:17:11.991Z,67.76
2022-10-06T17:20:15.562Z,68.24
2022-10-06T17:23:18.401Z,68.90
2022-10-06T17:26:23.402Z,68.96
2022-10-06T17:29:28.002Z,69.22
2022-10-06T17:32:30.665Z,70.39
2022-10-06T17:35:37.553Z,70.95
2022-10-06T17:38:42.865Z,71.75
2022-10-06T17:41:46.617Z,72.87
2022-10-06T17:44:51.550Z,74.06
2022-10-06T17:47:54.286Z,74.43
2022-10-06T17:51:00.916Z,74.09
2022-10-06T17:54:05.677Z,74.18
2022-10-06T17:57:08.463Z,74.49
2022-10-06T18:00:14.987Z,74.50
2022-10-06T18:03:19.268Z,74.81
2022-10-06T18:06:24.180Z,74.54
2022-10-06T18:09:26.895Z,74.77
2022-10-06T18:12:36.283Z,74.70
2022-10-06T18:15:40.633Z,74.82
2022-10-06T18:18:48.095Z,74.46
2022-10-06T18:21:50.804Z,75.15
2022-10-06T18:24:58.528Z,75.32
2022-10-06T18:28:02.002Z,75.38
2022-10-06T18:31:06.436Z,75.26
2022-10-06T18:36:10.397Z,75.62
2022-10-06T18:37:34.350Z,75.58
2022-10-06T18:40:37.024Z,75.92
2022-10-06T18:43:39.863Z,76.26
2022-10-06T18:47:01.249Z,76.31
2022-10-06T18:50:04.098Z,76.36
2022-10-06T18:53:07.113Z,77.10
2022-10-06T18:56:10.723Z,77.27
2022-10-06T18:59:13.926Z,77.49
2022-10-06T19:02:18.072Z,77.54
2022-10-06T19:05:20.914Z,78.09
2022-10-06T19:08:24.164Z,77.94
2022-10-06T19:11:48.451Z,78.38
2022-10-06T19:14:51.301Z,78.53
2022-10-06T19:17:55.360Z,78.40
2022-10-06T19:20:58.645Z,78.93
2022-10-06T19:24:01.924Z,78.66
2022-10-06T19:27:11.608Z,78.95
2022-10-06T19:30:14.588Z,79.37
2022-10-06T19:33:18.650Z,79.31
2022-10-06T19:36:21.398Z,79.61
2022-10-06T19:39:26.376Z,79.76
2022-10-06T19:42:46.533Z,79.75
2022-10-06T19:45:57.546Z,80.59
2022-10-06T19:49:05.695Z,81.20
2022-10-06T19:52:10.623Z,81.18
2022-10-06T19:55:13.433Z,81.08
2022-10-06T19:58:16.527Z,81.67
2022-10-06T20:01:19.617Z,81.95
2022-10-06T20:04:25.327Z,82.42
2022-10-06T20:07:28.194Z,82.41
2022-10-06T20:10:30.936Z,82.64
2022-10-06T20:13:36.229Z,82.57
2022-10-06T20:16:42.638Z,82.58
2022-10-06T20:19:47.563Z,82.58
2022-10-06T20:22:50.632Z,82.56
2022-10-06T20:25:53.550Z,82.52
2022-10-06T20:28:56.280Z,82.55
2022-10-06T20:31:59.517Z,82.68
2022-10-06T20:35:04.762Z,82.39
2022-10-06T20:38:08.996Z,82.54
2022-10-06T20:41:10.777Z,82.75
2022-10-06T20:44:13.652Z,82.66
2022-10-06T20:47:17.421Z,82.72
2022-10-06T20:50:21.474Z,82.46
2022-10-06T20:53:31.490Z,82.60
2022-10-06T20:56:35.819Z,82.82
2022-10-06T20:59:38.653Z,82.62
2022-10-06T21:02:41.548Z,82.96
2022-10-06T21:05:51.006Z,82.83
2022-10-06T21:08:53.907Z,82.82
2022-10-06T21:11:57.624Z,82.79
2022-10-06T21:15:00.622Z,82.94
2022-10-06T21:18:05.747Z,82.83
2022-10-06T21:21:11.679Z,83.36
2022-10-06T21:24:14.657Z,83.47
2022-10-06T21:27:18.493Z,83.35
2022-10-06T21:30:21.401Z,83.40
2022-10-06T21:33:24.241Z,83.33
2022-10-06T21:36:32.263Z,83.67
2022-10-06T21:39:35.135Z,83.83
2022-10-06T21:42:37.993Z,83.79
2022-10-06T21:45:41.271Z,83.87
2022-10-06T21:48:44.350Z,83.91
2022-10-06T21:51:50.721Z,83.94
2022-10-06T21:54:53.594Z,83.74
2022-10-06T21:57:56.864Z,84.20
2022-10-06T22:01:02.963Z,83.81
2022-10-06T22:04:06.792Z,84.25
2022-10-06T22:07:11.032Z,84.25
2022-10-06T22:10:13.851Z,84.32
2022-10-06T22:13:16.715Z,84.12
2022-10-06T22:16:22.350Z,84.24
2022-10-06T22:19:25.563Z,84.38
2022-10-06T22:22:30.155Z,84.53
2022-10-06T22:25:32.988Z,84.24
2022-10-06T22:28:36.413Z,84.46
2022-10-06T22:31:40.748Z,84.38
2022-10-06T22:34:44.036Z,84.59
2022-10-06T22:37:50.272Z,84.34
2022-10-06T22:40:53.149Z,84.71
2022-10-06T22:43:58.075Z,84.59
2022-10-06T22:47:01.292Z,84.69
2022-10-06T22:50:04.643Z,84.59
2022-10-06T22:53:09.211Z,84.85
2022-10-06T22:56:12.270Z,84.88
2022-10-06T22:59:15.211Z,84.97
2022-10-06T23:02:18.422Z,85.20
2022-10-06T23:05:21.380Z,85.46
2022-10-06T23:08:29.046Z,85.45
2022-10-06T23:11:37.133Z,85.34
2022-10-06T23:14:39.981Z,85.36
2022-10-06T23:17:43.887Z,85.50
2022-10-06T23:20:46.828Z,85.41
2022-10-06T23:23:52.950Z,85.73
2022-10-06T23:26:58.480Z,85.47
2022-10-06T23:30:01.902Z,85.67
2022-10-06T23:33:05.430Z,85.60
2022-10-06T23:36:10.515Z,85.46
2022-10-06T23:39:15.430Z,85.65
2022-10-06T23:42:18.253Z,85.63
2022-10-06T23:45:21.414Z,85.78
2022-10-06T23:48:24.295Z,85.67
2022-10-06T23:51:27.770Z,85.65
2022-10-06T23:54:32.178Z,85.81
2022-10-06T23:57:35.199Z,85.76
